createdAt,value
2022-08-17T00:01:31.434Z,98832.50
2022-08-17T00:04:19.335Z,98836.41
2022-08-17T00:06:46.254Z,98866.59
2022-08-17T00:09:18.431Z,98865.34
2022-08-17T00:12:35.485Z,98865.06
2022-08-17T00:14:34.976Z,98844.00
2022-08-17T00:17:02.711Z,98851.13
2022-08-17T00:19:29.751Z,98844.88
2022-08-17T00:22:35.079Z,98848.91
2022-08-17T00:24:47.046Z,98843.47
2022-08-17T00:27:13.700Z,98831.22
2022-08-17T00:29:40.551Z,98824.22
2022-08-17T00:33:13.795Z,98835.78
2022-08-17T00:34:53.864Z,98855.75
2022-08-17T00:37:20.464Z,98851.16
2022-08-17T00:39:47.136Z,98855.47
2022-08-17T00:42:18.290Z,98859.91
2022-08-17T00:44:45.524Z,98849.31
2022-08-17T00:47:13.524Z,98827.66
2022-08-17T00:49:40.221Z,98834.53
2022-08-17T00:52:15.601Z,98846.97
2022-08-17T00:54:44.611Z,98832.16
2022-08-17T00:57:14.721Z,98835.22
2022-08-17T00:59:55.967Z,98830.59
2022-08-17T01:02:36.676Z,98841.66
2022-08-17T01:05:13.166Z,98839.00
2022-08-17T01:07:40.307Z,98829.78
2022-08-17T01:10:57.627Z,98838.16
2022-08-17T01:12:57.927Z,98822.38
2022-08-17T01:15:24.522Z,98823.09
2022-08-17T01:17:51.213Z,98815.59
2022-08-17T01:20:18.026Z,98825.31
2022-08-17T01:22:44.623Z,98816.41
2022-08-17T01:25:12.620Z,98809.00
2022-08-17T01:27:39.720Z,98814.72
2022-08-17T01:30:56.548Z,98819.22
2022-08-17T01:32:56.578Z,98803.16
2022-08-17T01:35:23.170Z,98821.31
2022-08-17T01:37:49.817Z,98803.16
2022-08-17T01:40:29.439Z,98817.22
2022-08-17T01:42:59.826Z,98812.53
2022-08-17T01:45:30.440Z,98810.13
2022-08-17T01:47:57.052Z,98809.16
2022-08-17T01:50:31.385Z,98804.38
2022-08-17T01:53:11.071Z,98810.97
2022-08-17T01:55:50.672Z,98816.94
2022-08-17T01:58:17.755Z,98816.13
2022-08-17T02:01:00.250Z,98808.97
2022-08-17T02:03:32.197Z,98813.19
2022-08-17T02:05:58.823Z,98807.59
2022-08-17T02:08:39.300Z,98806.03
2022-08-17T02:11:15.808Z,98815.94
2022-08-17T02:13:46.797Z,98819.41
2022-08-17T02:16:14.250Z,98810.78
2022-08-17T02:18:41.283Z,98815.09
2022-08-17T02:21:08.612Z,98821.25
2022-08-17T02:23:37.848Z,98822.63
2022-08-17T02:26:05.373Z,98814.81
2022-08-17T02:28:32.002Z,98810.38
2022-08-17T02:31:04.596Z,98810.50
2022-08-17T02:33:41.901Z,98817.59
2022-08-17T02:36:11.517Z,98820.97
2022-08-17T02:38:39.460Z,98808.81
2022-08-17T02:41:06.502Z,98825.56
2022-08-17T02:43:33.225Z,98816.75
2022-08-17T02:45:59.774Z,98820.34
2022-08-17T02:48:30.939Z,98832.53
2022-08-17T02:50:59.370Z,98826.69
2022-08-17T02:53:26.106Z,98819.13
2022-08-17T02:55:52.843Z,98829.63
2022-08-17T02:58:35.485Z,98824.44
2022-08-17T03:01:07.013Z,98814.38
2022-08-17T03:03:33.893Z,98825.00
2022-08-17T03:06:00.827Z,98822.34
2022-08-17T03:08:27.475Z,98804.47
2022-08-17T03:10:54.104Z,98828.94
2022-08-17T03:13:20.845Z,98822.78
2022-08-17T03:15:48.588Z,98807.50
2022-08-17T03:18:24.320Z,98806.53
2022-08-17T03:20:57.202Z,98771.06
2022-08-17T03:23:25.353Z,98787.41
2022-08-17T03:25:53.630Z,98780.94
2022-08-17T03:28:21.417Z,98769.25
2022-08-17T03:30:48.025Z,98768.84
2022-08-17T03:33:14.739Z,98779.59
2022-08-17T03:35:41.817Z,98784.63
2022-08-17T03:38:12.206Z,98792.84
2022-08-17T03:40:56.729Z,98795.91
2022-08-17T03:43:27.822Z,98793.97
2022-08-17T03:46:28.201Z,98801.22
2022-08-17T03:49:18.903Z,98802.06
2022-08-17T03:52:04.000Z,98811.97
2022-08-17T03:54:49.283Z,98818.66
2022-08-17T03:57:16.458Z,98804.31
2022-08-17T03:59:43.153Z,98805.53
2022-08-17T04:02:17.478Z,98790.97
2022-08-17T04:04:44.388Z,98778.44
2022-08-17T04:07:11.099Z,98752.84
2022-08-17T04:09:38.106Z,98742.84
2022-08-17T04:12:05.388Z,98749.47
2022-08-17T04:14:45.988Z,98741.41
2022-08-17T04:17:26.303Z,98749.59
2022-08-17T04:19:54.007Z,98745.66
2022-08-17T04:22:32.622Z,98748.00
2022-08-17T04:25:15.729Z,98729.38
2022-08-17T04:27:42.327Z,98726.88
2022-08-17T04:30:09.736Z,98745.31
2022-08-17T04:33:02.282Z,98745.56
2022-08-17T04:35:39.452Z,98743.94
2022-08-17T04:38:07.597Z,98729.81
2022-08-17T04:40:52.895Z,98724.31
2022-08-17T04:43:21.762Z,98730.63
2022-08-17T04:46:06.355Z,98728.50
2022-08-17T04:48:38.823Z,98729.69
2022-08-17T04:51:10.504Z,98722.88
2022-08-17T04:53:38.726Z,98718.97
2022-08-17T04:56:05.880Z,98733.53
2022-08-17T04:58:32.575Z,98706.06
2022-08-17T05:00:59.283Z,98708.00
2022-08-17T05:03:25.962Z,98726.41
2022-08-17T05:05:53.718Z,98726.41
2022-08-17T05:08:21.387Z,98723.25
2022-08-17T05:10:48.952Z,98727.44
2022-08-17T05:13:21.512Z,98719.25
2022-08-17T05:15:49.909Z,98712.97
2022-08-17T05:18:17.092Z,98714.91
2022-08-17T05:20:44.542Z,98716.63
2022-08-17T05:23:14.759Z,98732.81
2022-08-17T05:25:46.257Z,98752.16
2022-08-17T05:28:15.284Z,98754.56
2022-08-17T05:30:43.903Z,98747.75
2022-08-17T05:33:13.362Z,98760.59
2022-08-17T05:35:46.996Z,98750.53
2022-08-17T05:38:14.911Z,98761.91
2022-08-17T05:40:43.310Z,98764.03
2022-08-17T05:43:11.531Z,98760.97
2022-08-17T05:45:55.229Z,98756.47
2022-08-17T05:48:36.738Z,98758.28
2022-08-17T05:51:34.685Z,98758.47
2022-08-17T05:54:13.705Z,98764.06
2022-08-17T05:57:02.278Z,98764.66
2022-08-17T06:00:10.973Z,98762.09
2022-08-17T06:02:59.330Z,98760.56
2022-08-17T06:06:01.453Z,98768.28
2022-08-17T06:08:56.188Z,98766.63
2022-08-17T06:11:22.856Z,98764.41
2022-08-17T06:14:08.261Z,98768.09
2022-08-17T06:16:39.782Z,98759.09
2022-08-17T06:19:17.623Z,98771.03
2022-08-17T06:21:47.883Z,98757.13
2022-08-17T06:24:34.288Z,98766.69
2022-08-17T06:27:09.713Z,98765.03
2022-08-17T06:29:45.107Z,98761.88
2022-08-17T06:32:12.983Z,98765.22
2022-08-17T06:34:40.544Z,98762.69
2022-08-17T06:37:10.236Z,98767.53
2022-08-17T06:40:04.137Z,98761.53
2022-08-17T06:43:04.982Z,98764.69
2022-08-17T06:45:49.500Z,98774.69
2022-08-17T06:48:25.906Z,98773.16
2022-08-17T06:50:57.846Z,98773.97
2022-08-17T06:53:32.759Z,98767.13
2022-08-17T06:56:06.381Z,98764.16
2022-08-17T06:58:33.752Z,98754.47
2022-08-17T07:01:11.764Z,98775.31
2022-08-17T07:03:54.559Z,98761.88
2022-08-17T07:06:24.265Z,98768.16
2022-08-17T07:08:55.987Z,98782.47
2022-08-17T07:11:54.794Z,98781.97
2022-08-17T07:14:41.055Z,98771.59
2022-08-17T07:17:13.355Z,98773.78
2022-08-17T07:19:45.390Z,98769.56
2022-08-17T07:22:57.693Z,98782.31
2022-08-17T07:25:26.369Z,98765.63
2022-08-17T07:27:55.912Z,98776.66
2022-08-17T07:30:45.747Z,98761.78
2022-08-17T07:33:20.272Z,98779.19
2022-08-17T07:35:48.406Z,98774.47
2022-08-17T07:38:29.938Z,98762.53
2022-08-17T07:41:03.499Z,98777.25
2022-08-17T07:43:37.219Z,98775.09
2022-08-17T07:46:38.534Z,98774.66
2022-08-17T07:49:06.721Z,98775.69
2022-08-17T07:51:41.088Z,98776.25
2022-08-17T07:54:22.443Z,98770.72
2022-08-17T07:57:01.003Z,98771.16
2022-08-17T07:59:28.615Z,98775.06
2022-08-17T08:02:06.806Z,98772.66
2022-08-17T08:04:59.668Z,98768.72
2022-08-17T08:07:32.034Z,98768.31
2022-08-17T08:10:07.455Z,98769.09
2022-08-17T08:12:36.922Z,98776.66
2022-08-17T08:15:03.455Z,98774.72
2022-08-17T08:17:36.523Z,98779.81
2022-08-17T08:20:37.581Z,98760.94
2022-08-17T08:23:19.282Z,98764.72
2022-08-17T08:26:26.490Z,98772.84
2022-08-17T08:29:14.775Z,98775.88
2022-08-17T08:31:56.266Z,98778.81
2022-08-17T08:35:02.121Z,98769.72
2022-08-17T08:37:35.751Z,98776.75
2022-08-17T08:40:11.076Z,98778.69
2022-08-17T08:42:40.552Z,98768.47
2022-08-17T08:45:43.439Z,98777.16
2022-08-17T08:48:53.433Z,98773.00
2022-08-17T08:51:46.231Z,98765.97
2022-08-17T08:54:35.219Z,98752.81
2022-08-17T08:57:26.710Z,98767.56
2022-08-17T08:59:59.794Z,98760.00
2022-08-17T09:02:51.571Z,98770.44
2022-08-17T09:05:30.544Z,98772.00
2022-08-17T09:08:28.274Z,98768.28
2022-08-17T09:11:08.376Z,98765.47
2022-08-17T09:13:59.050Z,98776.78
2022-08-17T09:16:29.943Z,98774.00
2022-08-17T09:19:42.714Z,98768.97
2022-08-17T09:22:24.241Z,98765.97
2022-08-17T09:25:03.183Z,98767.28
2022-08-17T09:27:51.032Z,98768.41
2022-08-17T09:30:18.594Z,98755.22
2022-08-17T09:32:50.024Z,98759.56
2022-08-17T09:35:37.080Z,98775.50
2022-08-17T09:38:16.226Z,98762.69
2022-08-17T09:40:53.529Z,98762.84
2022-08-17T09:43:36.838Z,98762.97
2022-08-17T09:46:09.601Z,98750.44
2022-08-17T09:48:40.679Z,98759.81
2022-08-17T09:51:25.230Z,98768.44
2022-08-17T09:53:52.085Z,98759.28
2022-08-17T09:57:00.865Z,98757.13
2022-08-17T09:59:44.832Z,98753.09
2022-08-17T10:02:33.355Z,98754.66
2022-08-17T10:05:04.813Z,98766.97
2022-08-17T10:07:56.093Z,98769.78
2022-08-17T10:10:29.541Z,98761.22
2022-08-17T10:13:10.602Z,98750.94
2022-08-17T10:15:56.082Z,98755.50
2022-08-17T10:18:41.471Z,98749.56
2022-08-17T10:21:29.915Z,98732.03
2022-08-17T10:24:20.249Z,98745.72
2022-08-17T10:26:57.121Z,98744.41
2022-08-17T10:29:54.497Z,98747.53
2022-08-17T10:32:28.307Z,98752.69
2022-08-17T10:35:16.706Z,98745.25
2022-08-17T10:38:15.387Z,98752.31
2022-08-17T10:40:49.600Z,98754.59
2022-08-17T10:43:32.985Z,98761.13
2022-08-17T10:46:30.417Z,98755.16
2022-08-17T10:49:17.059Z,98750.22
2022-08-17T10:51:48.252Z,98747.88
2022-08-17T10:54:45.692Z,98747.28
2022-08-17T10:57:31.792Z,98740.97
2022-08-17T11:00:00.764Z,98741.06
2022-08-17T11:02:39.423Z,98736.88
2022-08-17T11:05:28.743Z,98741.66
2022-08-17T11:08:26.267Z,98732.84
2022-08-17T11:11:17.870Z,98741.94
2022-08-17T11:14:18.003Z,98737.63
2022-08-17T11:16:47.945Z,98738.53
2022-08-17T11:19:24.024Z,98728.41
2022-08-17T11:22:02.651Z,98722.91
2022-08-17T11:24:33.001Z,98719.75
2022-08-17T11:27:29.115Z,98726.91
2022-08-17T11:30:02.719Z,98724.28
2022-08-17T11:32:47.236Z,98718.31
2022-08-17T11:35:14.317Z,98726.34
2022-08-17T11:38:08.697Z,98728.84
2022-08-17T11:40:46.637Z,98722.16
2022-08-17T11:43:42.291Z,98719.41
2022-08-17T11:47:08.474Z,98724.91
2022-08-17T11:50:27.118Z,98718.47
2022-08-17T11:52:54.978Z,98703.16
2022-08-17T11:55:38.559Z,98707.59
2022-08-17T11:58:34.197Z,98710.03
2022-08-17T12:01:02.114Z,98700.88
2022-08-17T12:03:31.937Z,98697.00
2022-08-17T12:06:20.360Z,98704.88
2022-08-17T12:09:21.744Z,98674.91
2022-08-17T12:12:12.410Z,98707.81
2022-08-17T12:17:41.184Z,98687.75
2022-08-17T12:20:16.285Z,98698.34
2022-08-17T12:22:54.879Z,98705.25
2022-08-17T12:25:26.965Z,98694.84
2022-08-17T12:28:06.339Z,98679.56
2022-08-17T12:30:34.701Z,98696.03
2022-08-17T12:33:01.386Z,98690.34
2022-08-17T12:35:35.988Z,98681.38
2022-08-17T12:38:03.266Z,98702.28
2022-08-17T12:40:32.110Z,98705.78
2022-08-17T12:43:03.240Z,98700.50
2022-08-17T12:45:32.480Z,98706.06
2022-08-17T12:48:08.058Z,98707.00
2022-08-17T12:50:39.948Z,98701.44
2022-08-17T12:53:36.003Z,98703.41
2022-08-17T12:56:07.630Z,98702.41
2022-08-17T12:58:47.786Z,98701.00
2022-08-17T13:01:16.575Z,98708.44
2022-08-17T13:03:50.381Z,98701.75
2022-08-17T13:06:28.648Z,98692.34
2022-08-17T13:08:55.277Z,98702.56
2022-08-17T13:11:24.850Z,98706.09
2022-08-17T13:13:55.105Z,98709.84
2022-08-17T13:16:26.940Z,98692.19
2022-08-17T13:19:14.967Z,98693.78
2022-08-17T13:21:54.242Z,98693.03
2022-08-17T13:24:20.808Z,98722.59
2022-08-17T13:27:07.890Z,98714.16
2022-08-17T13:29:35.074Z,98708.19
2022-08-17T13:32:05.064Z,98711.56
2022-08-17T13:35:03.741Z,98704.16
2022-08-17T13:37:34.446Z,98714.25
2022-08-17T13:40:10.189Z,98732.59
2022-08-17T13:42:52.572Z,98727.22
2022-08-17T13:45:36.753Z,98724.53
2022-08-17T13:48:14.112Z,98729.03
2022-08-17T13:50:49.409Z,98725.41
2022-08-17T13:53:26.750Z,98721.31
2022-08-17T13:55:55.357Z,98718.28
2022-08-17T13:58:56.696Z,98720.22
2022-08-17T14:01:32.979Z,98720.16
2022-08-17T14:04:01.509Z,98706.22
2022-08-17T14:06:53.021Z,98711.34
2022-08-17T14:09:23.250Z,98716.97
2022-08-17T14:11:51.160Z,98715.53
2022-08-17T14:14:19.787Z,98704.28
2022-08-17T14:16:46.360Z,98716.94
2022-08-17T14:19:14.107Z,98706.16
2022-08-17T14:21:43.249Z,98713.22
2022-08-17T14:24:21.889Z,98706.56
2022-08-17T14:26:49.627Z,98717.94
2022-08-17T14:29:16.264Z,98707.75
2022-08-17T14:31:42.904Z,98708.69
2022-08-17T14:34:20.191Z,98709.94
2022-08-17T14:36:48.524Z,98704.53
2022-08-17T14:39:15.916Z,98731.31
2022-08-17T14:41:42.856Z,98723.34
2022-08-17T14:44:13.047Z,98735.41
2022-08-17T14:46:41.255Z,98732.72
2022-08-17T14:49:10.739Z,98732.09
2022-08-17T14:51:43.606Z,98733.50
2022-08-17T14:54:34.169Z,98736.38
2022-08-17T14:57:23.253Z,98740.50
2022-08-17T14:59:54.429Z,98741.44
2022-08-17T15:02:30.436Z,98740.00
2022-08-17T15:05:05.546Z,98730.44
2022-08-17T15:07:32.161Z,98739.63
2022-08-17T15:10:01.568Z,98717.25
2022-08-17T15:12:32.639Z,98737.16
2022-08-17T15:15:01.100Z,98733.41
2022-08-17T15:17:43.831Z,98738.63
2022-08-17T15:20:24.809Z,98735.72
2022-08-17T15:22:55.405Z,98737.75
2022-08-17T15:25:22.765Z,98737.75
2022-08-17T15:27:49.589Z,98730.72
2022-08-17T15:30:16.486Z,98732.94
2022-08-17T15:32:50.839Z,98729.66
2022-08-17T15:35:26.970Z,98718.25
2022-08-17T15:38:04.587Z,98722.75
2022-08-17T15:40:37.224Z,98719.25
2022-08-17T15:43:07.633Z,98708.84
2022-08-17T15:45:34.700Z,98721.94
2022-08-17T15:48:01.279Z,98707.78
2022-08-17T15:50:27.932Z,98734.16
2022-08-17T15:52:57.966Z,98730.19
2022-08-17T15:55:26.873Z,98724.34
2022-08-17T15:57:53.863Z,98735.53
2022-08-17T16:00:21.200Z,98739.69
2022-08-17T16:03:45.127Z,98739.03
2022-08-17T16:05:35.215Z,98741.09
2022-08-17T16:08:01.857Z,98725.75
2022-08-17T16:10:34.994Z,98749.63
2022-08-17T16:13:03.400Z,98738.03
2022-08-17T16:15:32.119Z,98719.34
2022-08-17T16:17:58.851Z,98735.88
2022-08-17T16:20:25.666Z,98742.28
2022-08-17T16:22:52.587Z,98751.47
2022-08-17T16:25:50.376Z,98739.66
2022-08-17T16:28:12.665Z,98748.72
2022-08-17T16:30:39.360Z,98712.25
2022-08-17T16:33:06.019Z,98743.47
2022-08-17T16:35:33.352Z,98745.75
2022-08-17T16:37:59.969Z,98744.22
2022-08-17T16:40:28.787Z,98740.66
2022-08-17T16:42:57.799Z,98747.69
2022-08-17T16:45:31.413Z,98764.06
2022-08-17T16:47:59.080Z,98756.97
2022-08-17T16:50:25.977Z,98749.63
2022-08-17T16:52:52.795Z,98738.22
2022-08-17T16:55:22.997Z,98765.16
2022-08-17T16:57:50.730Z,98766.09
2022-08-17T17:00:19.225Z,98766.28
2022-08-17T17:02:47.953Z,98759.00
2022-08-17T17:05:42.708Z,98766.41
2022-08-17T17:08:12.899Z,98749.13
2022-08-17T17:10:46.066Z,98763.25
2022-08-17T17:13:32.468Z,98768.09
2022-08-17T17:16:11.889Z,98764.03
2022-08-17T17:18:58.415Z,98770.69
2022-08-17T17:21:33.293Z,98763.22
2022-08-17T17:24:06.133Z,98766.47
2022-08-17T17:27:07.359Z,98764.22
2022-08-17T17:29:58.135Z,98746.41
2022-08-17T17:32:46.188Z,98760.31
2022-08-17T17:35:20.529Z,98767.31
2022-08-17T17:37:47.763Z,98766.03
2022-08-17T17:40:23.151Z,98767.78
2022-08-17T17:42:52.951Z,98749.22
2022-08-17T17:45:31.894Z,98775.09
2022-08-17T17:47:58.525Z,98774.84
2022-08-17T17:50:37.670Z,98776.22
2022-08-17T17:53:18.299Z,98777.69
2022-08-17T17:56:07.432Z,98775.03
2022-08-17T17:58:54.116Z,98777.69
2022-08-17T18:01:43.046Z,98782.13
2022-08-17T18:04:32.568Z,98783.50
2022-08-17T18:07:10.077Z,98787.56
2022-08-17T18:10:00.976Z,98788.34
2022-08-17T18:12:37.208Z,98783.44
2022-08-17T18:15:14.009Z,98778.63
2022-08-17T18:18:03.846Z,98773.00
2022-08-17T18:20:36.449Z,98769.00
2022-08-17T18:23:17.990Z,98772.63
2022-08-17T18:25:46.894Z,98777.72
2022-08-17T18:28:25.246Z,98773.63
2022-08-17T18:31:03.932Z,98771.13
2022-08-17T18:33:30.586Z,98763.00
2022-08-17T18:35:58.685Z,98760.31
2022-08-17T18:38:41.964Z,98768.63
2022-08-17T18:41:21.102Z,98770.72
2022-08-17T18:44:03.745Z,98764.19
2022-08-17T18:46:35.948Z,98772.03
2022-08-17T18:49:08.529Z,98767.59
2022-08-17T18:51:41.596Z,98768.13
2022-08-17T18:54:24.966Z,98768.50
2022-08-17T18:56:58.827Z,98759.72
2022-08-17T18:59:49.330Z,98761.97
2022-08-17T19:02:32.496Z,98763.06
2022-08-17T19:05:26.739Z,98762.75
2022-08-17T19:07:53.641Z,98757.69
2022-08-17T19:10:46.329Z,98752.38
2022-08-17T19:13:24.469Z,98764.59
2022-08-17T19:16:11.575Z,98765.56
2022-08-17T19:19:10.277Z,98759.00
2022-08-17T19:21:40.441Z,98755.91
2022-08-17T19:24:13.535Z,98764.25
2022-08-17T19:26:51.007Z,98761.56
2022-08-17T19:29:25.628Z,98752.03
2022-08-17T19:31:55.227Z,98752.78
2022-08-17T19:34:33.242Z,98756.34
2022-08-17T19:37:06.898Z,98756.53
2022-08-17T19:40:24.513Z,98758.53
2022-08-17T19:43:15.020Z,98749.31
2022-08-17T19:45:47.503Z,98750.03
2022-08-17T19:48:45.579Z,98751.41
2022-08-17T19:51:34.419Z,98747.31
2022-08-17T19:54:14.207Z,98748.19
2022-08-17T19:57:19.168Z,98759.88
2022-08-17T20:00:17.670Z,98762.53
2022-08-17T20:02:57.351Z,98760.91
2022-08-17T20:06:01.031Z,98760.97
2022-08-17T20:08:26.881Z,98760.47
2022-08-17T20:11:02.025Z,98762.63
2022-08-17T20:13:40.178Z,98764.19
2022-08-17T20:16:07.976Z,98758.16
2022-08-17T20:18:38.564Z,98751.88
2022-08-17T20:22:03.487Z,98759.69
2022-08-17T20:24:30.068Z,98759.19
2022-08-17T20:27:11.403Z,98747.53
2022-08-17T20:30:01.744Z,98761.84
2022-08-17T20:32:31.451Z,98753.03
2022-08-17T20:35:08.186Z,98761.75
2022-08-17T20:37:36.548Z,98732.91
2022-08-17T20:40:09.331Z,98754.25
2022-08-17T20:42:36.668Z,98751.09
2022-08-17T20:45:26.426Z,98753.22
2022-08-17T20:48:30.463Z,98750.59
2022-08-17T20:50:52.515Z,98755.16
2022-08-17T20:53:47.297Z,98767.53
2022-08-17T20:56:41.788Z,98777.25
2022-08-17T20:59:08.685Z,98763.97
2022-08-17T21:01:40.395Z,98775.53
2022-08-17T21:04:10.520Z,98774.84
2022-08-17T21:07:17.281Z,98774.31
2022-08-17T21:09:44.580Z,98781.69
2022-08-17T21:12:11.891Z,98779.34
2022-08-17T21:15:05.680Z,98784.38
2022-08-17T21:17:56.549Z,98789.19
2022-08-17T21:20:32.578Z,98785.72
2022-08-17T21:23:08.588Z,98784.88
2022-08-17T21:26:20.396Z,98789.72
2022-08-17T21:29:30.349Z,98796.22
2022-08-17T21:32:01.671Z,98793.19
2022-08-17T21:34:35.844Z,98791.69
2022-08-17T21:37:23.418Z,98795.22
2022-08-17T21:40:19.303Z,98794.06
2022-08-17T21:42:50.588Z,98800.72
2022-08-17T21:45:29.779Z,98798.06
2022-08-17T21:48:14.571Z,98796.38
2022-08-17T21:50:44.223Z,98797.53
2022-08-17T21:53:24.033Z,98783.22
2022-08-17T21:55:52.241Z,98787.72
2022-08-17T21:58:40.290Z,98785.56
2022-08-17T22:01:21.158Z,98790.41
2022-08-17T22:03:58.853Z,98788.41
2022-08-17T22:06:29.960Z,98786.53
2022-08-17T22:09:11.745Z,98779.03
2022-08-17T22:11:51.277Z,98775.03
2022-08-17T22:14:21.395Z,98741.84
2022-08-17T22:16:48.514Z,98774.88
2022-08-17T22:19:15.440Z,98757.19
2022-08-17T22:21:42.036Z,98777.19
2022-08-17T22:24:21.715Z,98782.03
2022-08-17T22:27:00.457Z,98790.38
2022-08-17T22:29:43.940Z,98778.88
2022-08-17T22:32:10.817Z,98784.53
2022-08-17T22:34:39.076Z,98786.19
2022-08-17T22:37:27.465Z,98792.16
2022-08-17T22:39:59.331Z,98797.34
2022-08-17T22:42:25.999Z,98806.00
2022-08-17T22:44:54.635Z,98808.84
2022-08-17T22:47:32.039Z,98809.97
2022-08-17T22:50:02.029Z,98807.31
2022-08-17T22:53:14.382Z,98808.50
2022-08-17T22:56:10.699Z,98805.47
2022-08-17T22:59:20.990Z,98808.59
2022-08-17T23:02:12.597Z,98805.63
2022-08-17T23:04:42.859Z,98812.94
2022-08-17T23:07:09.519Z,98814.28
2022-08-17T23:09:36.367Z,98818.59
2022-08-17T23:12:07.903Z,98819.81
2022-08-17T23:14:39.294Z,98816.06
2022-08-17T23:17:06.552Z,98809.19
2022-08-17T23:19:33.604Z,98828.72
2022-08-17T23:22:02.336Z,98814.03
2022-08-17T23:24:30.798Z,98836.34
2022-08-17T23:26:58.169Z,98809.94
2022-08-17T23:29:29.257Z,98829.81
2022-08-17T23:31:57.927Z,98824.31
2022-08-17T23:34:25.603Z,98836.13
2022-08-17T23:36:53.200Z,98840.78
2022-08-17T23:39:27.725Z,98836.59
2022-08-17T23:41:56.531Z,98843.09
2022-08-17T23:44:23.505Z,98848.41
2022-08-17T23:46:53.760Z,98844.91
2022-08-17T23:49:20.634Z,98840.41
2022-08-17T23:51:48.305Z,98846.38
2022-08-17T23:54:26.625Z,98848.50
2022-08-17T23:56:53.184Z,98842.56
2022-08-17T23:59:22.490Z,98845.41
